createdAt,value
2022-12-03T00:01:14.024Z,4.64
2022-12-03T00:03:40.784Z,4.66
2022-12-03T00:06:07.681Z,4.66
2022-12-03T00:08:34.889Z,4.65
2022-12-03T00:11:01.572Z,4.67
2022-12-03T00:13:28.108Z,4.68
2022-12-03T00:15:54.686Z,4.70
2022-12-03T00:18:21.315Z,4.70
2022-12-03T00:20:47.988Z,4.70
2022-12-03T00:23:14.509Z,4.72
2022-12-03T00:25:40.991Z,4.72
2022-12-03T00:28:07.786Z,4.73
2022-12-03T00:30:34.319Z,4.72
2022-12-03T00:33:00.793Z,4.70
2022-12-03T00:35:27.311Z,4.71
2022-12-03T00:37:54.730Z,4.68
2022-12-03T00:40:21.294Z,4.64
2022-12-03T00:42:47.987Z,4.62
2022-12-03T00:45:14.677Z,4.55
2022-12-03T00:47:41.143Z,4.49
2022-12-03T00:50:08.341Z,4.44
2022-12-03T00:52:34.843Z,4.34
2022-12-03T00:55:01.405Z,4.29
2022-12-03T00:57:27.911Z,4.23
2022-12-03T00:59:54.377Z,4.17
2022-12-03T01:02:20.932Z,4.13
2022-12-03T01:04:47.631Z,4.06
2022-12-03T01:07:14.498Z,4.03
2022-12-03T01:09:47.033Z,3.98
2022-12-03T01:12:13.626Z,3.95
2022-12-03T01:14:40.454Z,3.94
2022-12-03T01:17:06.945Z,3.93
2022-12-03T01:19:35.288Z,3.96
2022-12-03T01:22:02.125Z,3.98
2022-12-03T01:24:28.627Z,4.00
2022-12-03T01:26:56.626Z,4.03
2022-12-03T01:29:23.347Z,4.05
2022-12-03T01:32:08.289Z,4.05
2022-12-03T01:34:34.899Z,4.02
2022-12-03T01:37:01.395Z,4.00
2022-12-03T01:39:27.951Z,3.99
2022-12-03T01:41:55.490Z,3.98
2022-12-03T01:44:30.927Z,3.95
2022-12-03T01:47:00.450Z,3.98
2022-12-03T01:49:31.538Z,3.99
2022-12-03T01:51:59.367Z,3.97
2022-12-03T01:54:30.275Z,4.01
2022-12-03T01:56:56.943Z,4.06
2022-12-03T01:59:33.189Z,4.05
2022-12-03T02:02:05.758Z,4.09
2022-12-03T02:04:32.700Z,4.13
2022-12-03T02:07:16.747Z,4.14
2022-12-03T02:09:43.208Z,4.16
2022-12-03T02:12:09.972Z,4.17
2022-12-03T02:14:36.542Z,4.21
2022-12-03T02:17:03.038Z,4.23
2022-12-03T02:19:30.172Z,4.23
2022-12-03T02:22:12.078Z,4.24
2022-12-03T02:25:13.744Z,4.25
2022-12-03T02:27:41.240Z,4.25
2022-12-03T02:30:08.810Z,4.25
2022-12-03T02:32:35.458Z,4.21
2022-12-03T02:35:01.970Z,4.19
2022-12-03T02:37:36.638Z,4.17
2022-12-03T02:40:10.742Z,4.14
2022-12-03T02:42:37.707Z,4.14
2022-12-03T02:45:26.347Z,4.13
2022-12-03T02:47:57.685Z,4.14
2022-12-03T02:50:30.078Z,4.12
2022-12-03T02:53:01.270Z,4.12
2022-12-03T02:55:36.506Z,4.10
2022-12-03T02:58:05.051Z,4.10
2022-12-03T03:00:31.724Z,4.07
2022-12-03T03:02:58.562Z,4.07
2022-12-03T03:05:25.477Z,4.07
2022-12-03T03:07:52.194Z,4.07
2022-12-03T03:10:23.067Z,4.09
2022-12-03T03:12:51.986Z,4.09
2022-12-03T03:15:18.695Z,4.06
2022-12-03T03:17:45.332Z,4.08
2022-12-03T03:20:12.839Z,4.08
2022-12-03T03:22:41.605Z,4.06
2022-12-03T03:25:15.461Z,4.04
2022-12-03T03:27:42.605Z,4.02
2022-12-03T03:30:10.383Z,4.02
2022-12-03T03:32:38.405Z,4.01
2022-12-03T03:35:06.409Z,4.02
2022-12-03T03:37:33.001Z,4.04
2022-12-03T03:39:59.586Z,4.03
2022-12-03T03:42:26.162Z,4.01
2022-12-03T03:44:52.938Z,3.99
2022-12-03T03:47:21.003Z,3.96
2022-12-03T03:49:49.529Z,3.93
2022-12-03T03:52:16.191Z,3.91
2022-12-03T03:54:42.865Z,3.87
2022-12-03T03:57:09.386Z,3.84
2022-12-03T03:59:36.226Z,3.82
2022-12-03T04:02:02.905Z,3.80
2022-12-03T04:04:34.221Z,3.76
2022-12-03T04:07:00.868Z,3.76
2022-12-03T04:09:27.343Z,3.75
2022-12-03T04:12:12.455Z,3.75
2022-12-03T04:14:39.052Z,3.77
2022-12-03T04:17:05.490Z,3.77
2022-12-03T04:19:31.982Z,3.81
2022-12-03T04:22:17.102Z,3.79
2022-12-03T04:24:43.635Z,3.82
2022-12-03T04:27:28.805Z,3.81
2022-12-03T04:29:55.289Z,3.82
2022-12-03T04:32:40.500Z,3.77
2022-12-03T04:35:26.101Z,3.74
2022-12-03T04:37:52.620Z,3.72
2022-12-03T04:40:37.485Z,3.66
2022-12-03T04:43:04.038Z,3.63
2022-12-03T04:45:30.688Z,3.63
2022-12-03T04:47:57.161Z,3.62
2022-12-03T04:50:23.726Z,3.60
2022-12-03T04:52:50.220Z,3.65
2022-12-03T04:55:16.825Z,3.64
2022-12-03T04:57:43.323Z,3.64
2022-12-03T05:00:10.466Z,3.63
2022-12-03T05:02:37.072Z,3.62
2022-12-03T05:05:03.808Z,3.63
2022-12-03T05:07:30.376Z,3.64
2022-12-03T05:09:56.978Z,3.66
2022-12-03T05:12:23.494Z,3.66
2022-12-03T05:14:49.956Z,3.66
2022-12-03T05:17:16.456Z,3.72
2022-12-03T05:20:01.673Z,3.72
2022-12-03T05:22:28.127Z,3.74
2022-12-03T05:24:54.980Z,3.79
2022-12-03T05:27:23.923Z,3.81
2022-12-03T05:29:50.873Z,3.84
2022-12-03T05:32:17.371Z,3.84
2022-12-03T05:34:43.876Z,3.86
2022-12-03T05:37:10.473Z,3.87
2022-12-03T05:39:37.211Z,3.88
2022-12-03T05:42:22.966Z,3.89
2022-12-03T05:44:49.476Z,3.89
2022-12-03T05:47:16.080Z,3.89
2022-12-03T05:49:42.684Z,3.86
2022-12-03T05:52:09.185Z,3.83
2022-12-03T05:54:35.752Z,3.81
2022-12-03T05:57:02.233Z,3.76
2022-12-03T05:59:28.722Z,3.73
2022-12-03T06:01:55.365Z,3.70
2022-12-03T06:04:21.964Z,3.68
2022-12-03T06:06:48.460Z,3.65
2022-12-03T06:09:14.973Z,3.64
2022-12-03T06:11:41.552Z,3.62
2022-12-03T06:14:08.383Z,3.61
2022-12-03T06:16:34.906Z,3.66
2022-12-03T06:19:01.662Z,3.63
2022-12-03T06:21:28.156Z,3.58
2022-12-03T06:23:58.097Z,3.56
2022-12-03T06:26:24.805Z,3.53
2022-12-03T06:28:51.265Z,3.50
2022-12-03T06:31:17.851Z,3.47
2022-12-03T06:33:44.533Z,3.42
2022-12-03T06:36:11.051Z,3.37
2022-12-03T06:38:37.506Z,3.34
2022-12-03T06:41:04.041Z,3.31
2022-12-03T06:43:31.432Z,3.27
2022-12-03T06:45:57.940Z,3.26
2022-12-03T06:48:24.442Z,3.26
2022-12-03T06:50:51.017Z,3.23
2022-12-03T06:53:17.474Z,3.27
2022-12-03T06:55:44.017Z,3.27
2022-12-03T06:58:10.609Z,3.31
2022-12-03T07:00:37.122Z,3.31
2022-12-03T07:03:04.056Z,3.34
2022-12-03T07:05:30.575Z,3.34
2022-12-03T07:07:57.255Z,3.34
2022-12-03T07:10:23.845Z,3.34
2022-12-03T07:12:50.324Z,3.34
2022-12-03T07:15:16.960Z,3.32
2022-12-03T07:17:43.540Z,3.29
2022-12-03T07:20:10.649Z,3.31
2022-12-03T07:22:38.343Z,3.32
2022-12-03T07:25:05.912Z,3.32
2022-12-03T07:27:32.386Z,3.34
2022-12-03T07:29:59.000Z,3.33
2022-12-03T07:32:25.521Z,3.34
2022-12-03T07:34:52.373Z,3.35
2022-12-03T07:37:23.086Z,3.36
2022-12-03T07:39:50.201Z,3.36
2022-12-03T07:42:16.734Z,3.36
2022-12-03T07:44:43.189Z,3.35
2022-12-03T07:47:09.771Z,3.31
2022-12-03T07:49:36.311Z,3.30
2022-12-03T07:52:02.764Z,3.30
2022-12-03T07:54:29.245Z,3.30
2022-12-03T07:57:01.121Z,3.30
2022-12-03T07:59:28.619Z,3.31
2022-12-03T08:01:55.148Z,3.34
2022-12-03T08:04:22.087Z,3.38
2022-12-03T08:06:49.236Z,3.38
2022-12-03T08:09:16.366Z,3.38
2022-12-03T08:11:45.507Z,3.40
2022-12-03T08:14:17.099Z,3.41
2022-12-03T08:16:46.185Z,3.44
2022-12-03T08:19:15.346Z,3.47
2022-12-03T08:21:42.479Z,3.51
2022-12-03T08:24:15.228Z,3.51
2022-12-03T08:26:44.352Z,3.57
2022-12-03T08:29:12.732Z,3.57
2022-12-03T08:31:39.696Z,3.59
2022-12-03T08:34:18.503Z,3.61
2022-12-03T08:36:46.227Z,3.64
2022-12-03T08:39:34.037Z,3.64
2022-12-03T08:42:38.559Z,3.66
2022-12-03T08:45:32.673Z,3.70
2022-12-03T08:48:10.165Z,3.71
2022-12-03T08:50:40.767Z,3.71
2022-12-03T08:53:13.276Z,3.74
2022-12-03T08:55:47.325Z,3.72
2022-12-03T08:58:43.877Z,3.75
2022-12-03T09:01:10.631Z,3.75
2022-12-03T09:03:39.547Z,3.70
2022-12-03T09:06:06.376Z,3.70
2022-12-03T09:08:32.888Z,3.66
2022-12-03T09:10:59.409Z,3.63
2022-12-03T09:13:25.871Z,3.62
2022-12-03T09:15:52.439Z,3.63
2022-12-03T09:18:19.205Z,3.63
2022-12-03T09:20:45.714Z,3.65
2022-12-03T09:23:12.222Z,3.68
2022-12-03T09:25:38.697Z,3.72
2022-12-03T09:28:05.332Z,3.74
2022-12-03T09:30:32.055Z,3.77
2022-12-03T09:33:00.054Z,3.83
2022-12-03T09:35:27.567Z,3.86
2022-12-03T09:38:09.310Z,3.89
2022-12-03T09:40:35.890Z,3.91
2022-12-03T09:43:02.474Z,3.93
2022-12-03T09:45:29.047Z,3.96
2022-12-03T09:47:55.736Z,3.99
2022-12-03T09:50:25.465Z,4.01
2022-12-03T09:52:55.191Z,4.06
2022-12-03T09:55:24.220Z,4.09
2022-12-03T09:57:56.264Z,4.12
2022-12-03T10:00:25.550Z,4.16
2022-12-03T10:02:54.900Z,4.25
2022-12-03T10:05:22.635Z,4.28
2022-12-03T10:07:50.735Z,4.37
2022-12-03T10:10:22.672Z,4.42
2022-12-03T10:12:50.779Z,4.47
2022-12-03T10:15:19.871Z,4.51
2022-12-03T10:17:47.759Z,4.56
2022-12-03T10:20:17.033Z,4.60
2022-12-03T10:22:43.863Z,4.67
2022-12-03T10:25:15.951Z,4.71
2022-12-03T10:27:43.118Z,4.77
2022-12-03T10:30:19.733Z,4.84
2022-12-03T10:32:51.201Z,4.89
2022-12-03T10:35:21.347Z,4.92
2022-12-03T10:38:18.515Z,4.97
2022-12-03T10:40:46.228Z,5.03
2022-12-03T10:43:18.572Z,5.08
2022-12-03T10:46:12.712Z,5.16
2022-12-03T10:48:39.363Z,5.24
2022-12-03T10:51:15.886Z,5.33
2022-12-03T10:53:42.534Z,5.43
2022-12-03T10:56:17.858Z,5.52
2022-12-03T10:58:44.596Z,5.59
2022-12-03T11:01:21.454Z,5.66
2022-12-03T11:03:48.875Z,5.68
2022-12-03T11:06:21.200Z,5.71
2022-12-03T11:08:57.829Z,5.77
2022-12-03T11:11:31.023Z,5.82
2022-12-03T11:14:02.684Z,5.86
2022-12-03T11:16:41.422Z,5.89
2022-12-03T11:19:40.206Z,5.95
2022-12-03T11:22:06.699Z,6.00
2022-12-03T11:24:35.319Z,6.06
2022-12-03T11:27:01.787Z,6.16
2022-12-03T11:29:46.990Z,6.38
2022-12-03T11:32:39.354Z,6.41
2022-12-03T11:35:25.801Z,6.43
2022-12-03T11:37:52.894Z,6.47
2022-12-03T11:40:19.367Z,6.47
2022-12-03T11:42:47.481Z,6.48
2022-12-03T11:45:22.364Z,6.53
2022-12-03T11:47:57.961Z,6.60
2022-12-03T11:50:53.728Z,6.67
2022-12-03T11:53:23.772Z,6.76
2022-12-03T11:56:08.400Z,6.89
2022-12-03T11:58:39.974Z,7.01
2022-12-03T12:01:07.964Z,7.10
2022-12-03T12:03:49.130Z,7.21
2022-12-03T12:06:21.152Z,7.27
2022-12-03T12:08:50.719Z,7.33
2022-12-03T12:11:19.438Z,7.33
2022-12-03T12:13:51.092Z,7.35
2022-12-03T12:16:46.064Z,7.35
2022-12-03T12:19:37.462Z,7.37
2022-12-03T12:22:22.556Z,7.40
2022-12-03T12:24:54.417Z,7.41
2022-12-03T12:27:32.944Z,7.50
2022-12-03T12:30:15.777Z,7.54
2022-12-03T12:32:46.198Z,7.58
2022-12-03T12:35:33.069Z,7.60
2022-12-03T12:38:17.545Z,7.61
2022-12-03T12:40:46.852Z,7.61
2022-12-03T12:43:27.704Z,7.72
2022-12-03T12:45:56.677Z,7.77
2022-12-03T12:48:27.120Z,7.83
2022-12-03T12:51:08.628Z,7.92
2022-12-03T12:53:36.497Z,7.94
2022-12-03T12:56:22.025Z,7.98
2022-12-03T12:58:48.646Z,7.99
2022-12-03T13:01:26.528Z,7.95
2022-12-03T13:03:53.241Z,7.93
2022-12-03T13:06:26.065Z,7.87
2022-12-03T13:08:53.101Z,7.87
2022-12-03T13:11:36.912Z,7.83
2022-12-03T13:14:21.920Z,7.76
2022-12-03T13:16:50.436Z,7.71
2022-12-03T13:19:29.032Z,7.70
2022-12-03T13:22:10.511Z,7.68
2022-12-03T13:24:57.454Z,7.63
2022-12-03T13:27:29.695Z,7.61
2022-12-03T13:30:00.693Z,7.64
2022-12-03T13:32:31.347Z,7.64
2022-12-03T13:35:13.251Z,7.65
2022-12-03T13:37:39.744Z,7.66
2022-12-03T13:40:20.091Z,7.65
2022-12-03T13:42:46.837Z,7.66
2022-12-03T13:45:16.479Z,7.67
2022-12-03T13:47:47.673Z,7.63
2022-12-03T13:50:36.115Z,7.64
2022-12-03T13:53:21.804Z,7.63
2022-12-03T13:55:51.894Z,7.63
2022-12-03T13:58:18.537Z,7.62
2022-12-03T14:00:45.599Z,7.65
2022-12-03T14:03:12.273Z,7.68
2022-12-03T14:05:38.981Z,7.70
2022-12-03T14:08:06.275Z,7.70
2022-12-03T14:10:32.845Z,7.69
2022-12-03T14:12:59.351Z,7.69
2022-12-03T14:15:26.522Z,7.70
2022-12-03T14:17:53.485Z,7.69
2022-12-03T14:20:20.576Z,7.69
2022-12-03T14:22:47.058Z,7.68
2022-12-03T14:25:13.632Z,7.67
2022-12-03T14:27:40.129Z,7.66
2022-12-03T14:30:07.184Z,7.65
2022-12-03T14:32:33.736Z,7.64
2022-12-03T14:35:02.789Z,7.63
2022-12-03T14:37:31.751Z,7.61
2022-12-03T14:39:58.248Z,7.59
2022-12-03T14:42:24.772Z,7.58
2022-12-03T14:44:51.979Z,7.56
2022-12-03T14:47:22.556Z,7.52
2022-12-03T14:49:49.461Z,7.55
2022-12-03T14:52:16.618Z,7.53
2022-12-03T14:54:43.266Z,7.51
2022-12-03T14:57:12.704Z,7.51
2022-12-03T14:59:41.239Z,7.50
2022-12-03T15:02:08.927Z,7.49
2022-12-03T15:04:35.502Z,7.47
2022-12-03T15:07:02.030Z,7.47
2022-12-03T15:09:28.613Z,7.47
2022-12-03T15:11:55.101Z,7.45
2022-12-03T15:14:21.729Z,7.45
2022-12-03T15:16:48.383Z,7.44
2022-12-03T15:19:15.038Z,7.42
2022-12-03T15:21:41.624Z,7.40
2022-12-03T15:24:08.336Z,7.42
2022-12-03T15:26:35.258Z,7.39
2022-12-03T15:29:01.929Z,7.37
2022-12-03T15:31:28.556Z,7.36
2022-12-03T15:33:55.054Z,7.34
2022-12-03T15:36:21.546Z,7.32
2022-12-03T15:38:48.065Z,7.33
2022-12-03T15:41:28.864Z,7.30
2022-12-03T15:44:01.928Z,7.28
2022-12-03T15:46:28.761Z,7.29
2022-12-03T15:48:55.842Z,7.27
2022-12-03T15:51:22.714Z,7.25
2022-12-03T15:53:49.273Z,7.26
2022-12-03T15:56:16.598Z,7.25
2022-12-03T15:58:43.273Z,7.23
2022-12-03T16:01:09.885Z,7.23
2022-12-03T16:03:36.809Z,7.22
2022-12-03T16:06:03.525Z,7.24
2022-12-03T16:08:30.125Z,7.24
2022-12-03T16:10:56.750Z,7.23
2022-12-03T16:13:23.282Z,7.23
2022-12-03T16:15:49.857Z,7.24
2022-12-03T16:18:16.474Z,7.22
2022-12-03T16:20:42.957Z,7.20
2022-12-03T16:23:09.673Z,7.21
2022-12-03T16:25:36.313Z,7.19
2022-12-03T16:28:02.906Z,7.19
2022-12-03T16:30:29.686Z,7.17
2022-12-03T16:32:56.180Z,7.17
2022-12-03T16:35:22.729Z,7.14
2022-12-03T16:37:49.228Z,7.13
2022-12-03T16:40:15.764Z,7.13
2022-12-03T16:42:42.366Z,7.13
2022-12-03T16:45:09.329Z,7.12
2022-12-03T16:47:36.177Z,7.12
2022-12-03T16:50:04.603Z,7.10
2022-12-03T16:52:31.125Z,7.10
2022-12-03T16:54:57.716Z,7.09
2022-12-03T16:57:27.603Z,7.06
2022-12-03T16:59:56.939Z,7.05
2022-12-03T17:02:23.691Z,7.06
2022-12-03T17:04:50.172Z,7.04
2022-12-03T17:07:16.681Z,7.02
2022-12-03T17:09:43.193Z,7.02
2022-12-03T17:12:09.636Z,7.00
2022-12-03T17:14:36.126Z,7.02
2022-12-03T17:17:02.683Z,7.01
2022-12-03T17:19:29.451Z,7.00
2022-12-03T17:21:55.909Z,7.00
2022-12-03T17:24:22.565Z,6.97
2022-12-03T17:26:49.097Z,6.98
2022-12-03T17:29:15.680Z,6.96
2022-12-03T17:31:43.011Z,6.97
2022-12-03T17:34:10.155Z,6.95
2022-12-03T17:36:36.713Z,6.95
2022-12-03T17:39:03.501Z,6.94
2022-12-03T17:41:29.971Z,6.93
2022-12-03T17:43:56.463Z,6.92
2022-12-03T17:46:22.994Z,6.92
2022-12-03T17:48:49.663Z,6.89
2022-12-03T17:51:16.348Z,6.89
2022-12-03T17:53:42.825Z,6.87
2022-12-03T17:56:09.618Z,6.87
2022-12-03T17:58:36.174Z,6.84
2022-12-03T18:01:03.434Z,6.82
2022-12-03T18:03:30.585Z,6.81
2022-12-03T18:05:57.187Z,6.80
2022-12-03T18:08:23.792Z,6.79
2022-12-03T18:10:50.373Z,6.77
2022-12-03T18:13:16.887Z,6.76
2022-12-03T18:15:43.598Z,6.75
2022-12-03T18:18:10.515Z,6.75
2022-12-03T18:20:37.404Z,6.73
2022-12-03T18:23:05.042Z,6.73
2022-12-03T18:25:31.645Z,6.72
2022-12-03T18:27:58.131Z,6.70
2022-12-03T18:30:24.769Z,6.69
2022-12-03T18:32:51.311Z,6.69
2022-12-03T18:35:18.082Z,6.68
2022-12-03T18:37:44.700Z,6.68
2022-12-03T18:40:17.612Z,6.69
2022-12-03T18:42:44.457Z,6.66
2022-12-03T18:45:13.024Z,6.65
2022-12-03T18:47:39.660Z,6.65
2022-12-03T18:50:07.545Z,6.64
2022-12-03T18:52:34.072Z,6.61
2022-12-03T18:55:00.560Z,6.60
2022-12-03T18:57:27.877Z,6.59
2022-12-03T18:59:54.791Z,6.59
2022-12-03T19:05:08.894Z,6.57
2022-12-03T19:07:35.520Z,6.56
2022-12-03T19:10:02.333Z,6.56
2022-12-03T19:12:29.292Z,6.57
2022-12-03T19:14:55.813Z,6.57
2022-12-03T19:17:22.557Z,6.56
2022-12-03T19:19:49.051Z,6.56
2022-12-03T19:22:15.570Z,6.56
2022-12-03T19:24:42.021Z,6.56
2022-12-03T19:27:08.493Z,6.56
2022-12-03T19:29:35.330Z,6.56
2022-12-03T19:32:02.320Z,6.56
2022-12-03T19:34:29.282Z,6.54
2022-12-03T19:36:56.134Z,6.52
2022-12-03T19:39:22.795Z,6.51
2022-12-03T19:41:49.510Z,6.50
2022-12-03T19:44:18.841Z,6.49
2022-12-03T19:46:45.349Z,6.49
2022-12-03T19:49:12.009Z,6.50
2022-12-03T19:51:38.821Z,6.49
2022-12-03T19:54:07.198Z,6.49
2022-12-03T19:56:34.393Z,6.48
2022-12-03T19:59:00.904Z,6.47
2022-12-03T20:01:32.437Z,6.47
2022-12-03T20:04:01.612Z,6.46
2022-12-03T20:06:31.137Z,6.44
2022-12-03T20:09:04.115Z,6.45
2022-12-03T20:11:32.683Z,6.44
2022-12-03T20:14:02.908Z,6.45
2022-12-03T20:16:30.154Z,6.44
2022-12-03T20:18:59.326Z,6.42
2022-12-03T20:21:26.689Z,6.41
2022-12-03T20:23:53.391Z,6.40
2022-12-03T20:26:21.627Z,6.41
2022-12-03T20:28:51.740Z,6.40
2022-12-03T20:31:20.730Z,6.36
2022-12-03T20:33:50.070Z,6.37
2022-12-03T20:36:18.368Z,6.35
2022-12-03T20:38:45.045Z,6.35
2022-12-03T20:41:14.996Z,6.34
2022-12-03T20:43:41.786Z,6.35
2022-12-03T20:46:10.086Z,6.33
2022-12-03T20:48:36.886Z,6.33
2022-12-03T20:51:05.421Z,6.32
2022-12-03T20:53:33.145Z,6.32
2022-12-03T20:56:00.860Z,6.31
2022-12-03T20:58:27.923Z,6.31
2022-12-03T21:00:54.615Z,6.31
2022-12-03T21:03:21.566Z,6.28
2022-12-03T21:05:48.186Z,6.28
2022-12-03T21:08:14.916Z,6.27
2022-12-03T21:10:45.340Z,6.26
2022-12-03T21:13:17.321Z,6.24
2022-12-03T21:15:44.843Z,6.23
2022-12-03T21:18:15.205Z,6.21
2022-12-03T21:20:47.402Z,6.20
2022-12-03T21:23:14.582Z,6.18
2022-12-03T21:25:41.276Z,6.16
2022-12-03T21:28:09.084Z,6.15
2022-12-03T21:30:39.986Z,6.15
2022-12-03T21:33:07.117Z,6.12
2022-12-03T21:35:37.729Z,6.11
2022-12-03T21:38:05.001Z,6.12
2022-12-03T21:40:32.835Z,6.12
2022-12-03T21:42:59.422Z,6.09
2022-12-03T21:45:26.312Z,6.12
2022-12-03T21:47:52.933Z,6.10
2022-12-03T21:50:20.217Z,6.11
2022-12-03T21:52:46.791Z,6.11
2022-12-03T21:55:13.277Z,6.12
2022-12-03T21:57:39.952Z,6.13
2022-12-03T22:00:08.397Z,6.12
2022-12-03T22:02:35.098Z,6.13
2022-12-03T22:05:01.806Z,6.13
2022-12-03T22:07:28.593Z,6.12
2022-12-03T22:09:55.391Z,6.13
2022-12-03T22:12:22.198Z,6.11
2022-12-03T22:14:48.980Z,6.10
2022-12-03T22:17:15.536Z,6.10
2022-12-03T22:19:42.520Z,6.07
2022-12-03T22:22:09.054Z,6.06
2022-12-03T22:24:35.544Z,6.03
2022-12-03T22:27:04.032Z,6.02
2022-12-03T22:29:30.927Z,6.00
2022-12-03T22:31:57.404Z,5.98
2022-12-03T22:34:23.939Z,5.95
2022-12-03T22:36:50.412Z,5.91
2022-12-03T22:39:16.944Z,5.89
2022-12-03T22:41:43.471Z,5.88
2022-12-03T22:44:10.174Z,5.87
2022-12-03T22:46:36.787Z,5.86
2022-12-03T22:49:07.472Z,5.86
2022-12-03T22:51:34.459Z,5.84
2022-12-03T22:54:01.843Z,5.86
2022-12-03T22:56:29.607Z,5.86
2022-12-03T22:58:56.317Z,5.83
2022-12-03T23:01:25.591Z,5.83
2022-12-03T23:03:52.663Z,5.85
2022-12-03T23:06:20.165Z,5.86
2022-12-03T23:08:47.129Z,5.85
2022-12-03T23:11:14.636Z,5.84
2022-12-03T23:13:41.504Z,5.84
2022-12-03T23:16:17.203Z,5.82
2022-12-03T23:18:44.340Z,5.80
2022-12-03T23:21:15.890Z,5.77
2022-12-03T23:23:42.884Z,5.78
2022-12-03T23:26:13.422Z,5.77
2022-12-03T23:28:41.545Z,5.74
2022-12-03T23:31:20.571Z,5.72
2022-12-03T23:33:48.300Z,5.72
2022-12-03T23:36:15.003Z,5.70
2022-12-03T23:38:41.591Z,5.70
2022-12-03T23:41:11.232Z,5.67
2022-12-03T23:43:38.714Z,5.66
2022-12-03T23:46:10.729Z,5.65
2022-12-03T23:48:37.364Z,5.63
2022-12-03T23:51:09.534Z,5.60
2022-12-03T23:53:37.387Z,5.58
2022-12-03T23:56:08.220Z,5.55
2022-12-03T23:58:34.982Z,5.54
